createdAt,value
2022-11-07T00:01:21.952Z,22.88
2022-11-07T00:03:48.763Z,25.17
2022-11-07T00:06:15.531Z,25.90
2022-11-07T00:08:42.131Z,24.63
2022-11-07T00:11:08.976Z,25.23
2022-11-07T00:13:35.628Z,25.63
2022-11-07T00:16:08.262Z,26.08
2022-11-07T00:18:35.217Z,26.02
2022-11-07T00:21:09.407Z,26.73
2022-11-07T00:23:37.012Z,27.30
2022-11-07T00:26:04.946Z,28.35
2022-11-07T00:28:42.694Z,26.45
2022-11-07T00:31:11.542Z,26.98
2022-11-07T00:33:38.137Z,27.83
2022-11-07T00:36:05.176Z,28.80
2022-11-07T00:38:32.274Z,28.45
2022-11-07T00:41:01.752Z,27.90
2022-11-07T00:43:29.298Z,29.08
2022-11-07T00:45:56.802Z,29.92
2022-11-07T00:48:23.585Z,29.08
2022-11-07T00:50:50.489Z,29.23
2022-11-07T00:53:17.463Z,28.92
2022-11-07T00:55:44.273Z,29.40
2022-11-07T00:58:13.795Z,30.25
2022-11-07T01:00:42.040Z,30.50
2022-11-07T01:03:27.691Z,32.42
2022-11-07T01:06:03.168Z,31.27
2022-11-07T01:08:30.483Z,31.83
2022-11-07T01:10:58.950Z,31.30
2022-11-07T01:13:26.542Z,31.42
2022-11-07T01:15:53.853Z,30.48
2022-11-07T01:18:20.579Z,33.63
2022-11-07T01:20:47.271Z,33.35
2022-11-07T01:23:14.441Z,32.33
2022-11-07T01:25:41.673Z,34.40
2022-11-07T01:28:09.749Z,34.08
2022-11-07T01:30:43.740Z,33.90
2022-11-07T01:33:11.022Z,35.08
2022-11-07T01:35:38.017Z,34.60
2022-11-07T01:38:04.910Z,35.72
2022-11-07T01:40:33.854Z,34.85
2022-11-07T01:43:00.570Z,35.53
2022-11-07T01:45:29.705Z,35.63
2022-11-07T01:48:00.768Z,35.38
2022-11-07T01:50:27.743Z,34.72
2022-11-07T01:52:56.840Z,35.38
2022-11-07T01:55:29.325Z,35.25
2022-11-07T01:58:00.148Z,36.30
2022-11-07T02:00:27.761Z,36.85
2022-11-07T02:03:21.168Z,37.25
2022-11-07T02:05:54.979Z,38.15
2022-11-07T02:08:22.860Z,37.92
2022-11-07T02:10:50.103Z,37.67
2022-11-07T02:13:25.335Z,39.33
2022-11-07T02:15:52.611Z,38.58
2022-11-07T02:18:19.941Z,38.42
2022-11-07T02:20:46.775Z,40.70
2022-11-07T02:23:41.192Z,40.03
2022-11-07T02:26:09.559Z,40.17
2022-11-07T02:28:38.302Z,40.20
2022-11-07T02:31:05.087Z,40.47
2022-11-07T02:33:31.626Z,41.30
2022-11-07T02:35:58.781Z,41.72
2022-11-07T02:38:34.927Z,42.65
2022-11-07T02:41:09.689Z,41.80
2022-11-07T02:43:39.240Z,41.90
2022-11-07T02:46:09.437Z,42.25
2022-11-07T02:48:47.797Z,43.15
2022-11-07T02:51:14.806Z,41.97
2022-11-07T02:53:41.601Z,42.00
2022-11-07T02:56:09.226Z,44.05
2022-11-07T02:58:36.785Z,42.03
2022-11-07T03:01:07.231Z,43.50
2022-11-07T03:03:39.696Z,42.25
2022-11-07T03:06:08.270Z,41.25
2022-11-07T03:08:35.143Z,42.80
2022-11-07T03:11:02.521Z,42.67
2022-11-07T03:13:29.240Z,39.45
2022-11-07T03:15:56.170Z,41.60
2022-11-07T03:18:23.243Z,38.60
2022-11-07T03:20:49.887Z,39.08
2022-11-07T03:23:17.012Z,38.30
2022-11-07T03:25:43.894Z,36.58
2022-11-07T03:28:10.524Z,34.63
2022-11-07T03:30:37.117Z,32.22
2022-11-07T03:33:03.868Z,32.45
2022-11-07T03:35:30.482Z,32.80
2022-11-07T03:37:57.067Z,32.55
2022-11-07T03:40:23.614Z,30.48
2022-11-07T03:42:50.147Z,30.67
2022-11-07T03:45:17.225Z,30.60
2022-11-07T03:47:45.789Z,31.90
2022-11-07T03:50:16.132Z,30.38
2022-11-07T03:52:42.876Z,33.00
2022-11-07T03:55:11.183Z,33.20
2022-11-07T03:57:38.308Z,33.17
2022-11-07T04:00:05.659Z,34.05
2022-11-07T04:02:32.542Z,37.55
2022-11-07T04:04:59.137Z,35.90
2022-11-07T04:07:25.670Z,36.65
2022-11-07T04:09:52.351Z,39.05
2022-11-07T04:12:37.206Z,36.88
2022-11-07T04:15:22.579Z,36.15
2022-11-07T04:17:49.136Z,34.70
2022-11-07T04:20:15.725Z,33.65
2022-11-07T04:22:42.303Z,32.50
2022-11-07T04:25:09.698Z,32.10
2022-11-07T04:27:46.944Z,30.45
2022-11-07T04:30:19.538Z,30.52
2022-11-07T04:32:48.153Z,30.35
2022-11-07T04:35:15.796Z,27.42
2022-11-07T04:37:43.187Z,26.85
2022-11-07T04:40:11.149Z,28.52
2022-11-07T04:42:38.270Z,26.77
2022-11-07T04:45:05.616Z,26.42
2022-11-07T04:47:34.311Z,26.20
2022-11-07T04:50:06.642Z,28.23
2022-11-07T04:52:33.364Z,26.73
2022-11-07T04:55:00.155Z,27.60
2022-11-07T04:57:26.755Z,26.58
2022-11-07T04:59:53.486Z,28.83
2022-11-07T05:02:23.889Z,26.55
2022-11-07T05:04:52.157Z,26.67
2022-11-07T05:07:19.843Z,25.52
2022-11-07T05:09:46.540Z,26.85
2022-11-07T05:12:14.105Z,26.38
2022-11-07T05:14:40.739Z,29.05
2022-11-07T05:17:07.932Z,28.92
2022-11-07T05:19:34.487Z,28.17
2022-11-07T05:22:20.166Z,27.45
2022-11-07T05:24:46.766Z,27.05
2022-11-07T05:27:20.727Z,27.23
2022-11-07T05:29:47.259Z,25.23
2022-11-07T05:32:14.784Z,24.83
2022-11-07T05:34:41.573Z,25.88
2022-11-07T05:37:09.349Z,24.70
2022-11-07T05:39:36.590Z,24.85
2022-11-07T05:42:03.869Z,24.60
2022-11-07T05:44:31.043Z,25.75
2022-11-07T05:46:58.007Z,25.08
2022-11-07T05:49:25.633Z,25.88
2022-11-07T05:51:53.183Z,25.70
2022-11-07T05:54:20.081Z,24.27
2022-11-07T05:56:46.640Z,24.58
2022-11-07T05:59:13.847Z,23.95
2022-11-07T06:01:40.796Z,22.95
2022-11-07T06:04:07.938Z,24.13
2022-11-07T06:06:34.940Z,24.63
2022-11-07T06:09:01.884Z,21.88
2022-11-07T06:11:28.432Z,21.92
2022-11-07T06:13:55.161Z,21.02
2022-11-07T06:16:21.959Z,21.38
2022-11-07T06:18:48.543Z,21.38
2022-11-07T06:21:16.861Z,21.38
2022-11-07T06:23:43.865Z,21.95
2022-11-07T06:26:11.029Z,22.75
2022-11-07T06:28:37.686Z,23.42
2022-11-07T06:31:05.515Z,24.25
2022-11-07T06:33:32.987Z,23.90
2022-11-07T06:36:08.481Z,23.38
2022-11-07T06:38:35.850Z,24.38
2022-11-07T06:41:11.208Z,22.73
2022-11-07T06:43:38.902Z,21.27
2022-11-07T06:46:07.916Z,21.77
2022-11-07T06:48:34.679Z,23.95
2022-11-07T06:51:02.739Z,23.17
2022-11-07T06:53:29.632Z,23.65
2022-11-07T06:56:00.603Z,23.38
2022-11-07T06:58:27.401Z,22.10
2022-11-07T07:00:54.177Z,22.85
2022-11-07T07:03:20.813Z,22.75
2022-11-07T07:05:47.498Z,24.10
2022-11-07T07:08:14.876Z,23.83
2022-11-07T07:10:44.588Z,25.98
2022-11-07T07:13:14.196Z,25.55
2022-11-07T07:15:51.302Z,25.27
2022-11-07T07:18:19.077Z,24.95
2022-11-07T07:20:46.601Z,26.60
2022-11-07T07:23:13.321Z,25.95
2022-11-07T07:25:39.978Z,26.38
2022-11-07T07:28:06.501Z,25.17
2022-11-07T07:30:33.240Z,25.08
2022-11-07T07:32:59.859Z,25.60
2022-11-07T07:35:26.584Z,24.67
2022-11-07T07:37:53.305Z,25.77
2022-11-07T07:40:38.761Z,26.17
2022-11-07T07:43:05.281Z,25.58
2022-11-07T07:45:31.907Z,27.05
2022-11-07T07:48:02.524Z,26.27
2022-11-07T07:50:29.230Z,26.08
2022-11-07T07:52:58.921Z,25.45
2022-11-07T07:55:25.831Z,25.52
2022-11-07T07:57:52.559Z,24.92
2022-11-07T08:00:19.395Z,25.08
2022-11-07T08:02:46.056Z,25.25
2022-11-07T08:05:13.801Z,24.25
2022-11-07T08:07:51.010Z,24.02
2022-11-07T08:13:05.900Z,25.00
2022-11-07T08:15:32.518Z,24.90
2022-11-07T08:18:02.250Z,24.10
2022-11-07T08:20:28.834Z,22.52
2022-11-07T08:23:11.323Z,23.27
2022-11-07T08:25:41.506Z,23.73
2022-11-07T08:28:08.716Z,24.17
2022-11-07T08:30:35.953Z,23.98
2022-11-07T08:33:03.406Z,24.85
2022-11-07T08:35:31.425Z,25.08
2022-11-07T08:37:59.098Z,24.50
2022-11-07T08:40:26.344Z,26.42
2022-11-07T08:42:53.067Z,25.40
2022-11-07T08:45:19.728Z,23.80
2022-11-07T08:47:46.326Z,24.35
2022-11-07T08:50:13.121Z,23.83
2022-11-07T08:52:39.720Z,23.63
2022-11-07T08:55:06.736Z,23.58
2022-11-07T08:57:33.433Z,22.30
2022-11-07T08:59:59.969Z,23.48
2022-11-07T09:03:08.364Z,20.80
2022-11-07T09:05:13.972Z,20.65
2022-11-07T09:07:40.578Z,20.02
2022-11-07T09:10:07.730Z,21.85
2022-11-07T09:12:34.418Z,21.58
2022-11-07T09:15:01.035Z,19.02
2022-11-07T09:17:28.179Z,18.33
2022-11-07T09:19:54.825Z,21.85
2022-11-07T09:23:17.611Z,20.13
2022-11-07T09:25:45.072Z,21.98
2022-11-07T09:28:11.803Z,14.23
2022-11-07T09:30:38.323Z,19.73
2022-11-07T09:33:05.123Z,19.15
2022-11-07T09:35:31.661Z,19.05
2022-11-07T09:37:58.317Z,20.98
2022-11-07T09:40:30.649Z,15.30
2022-11-07T09:43:25.638Z,16.95
2022-11-07T09:45:57.502Z,14.90
2022-11-07T09:48:27.254Z,14.23
2022-11-07T09:50:53.939Z,15.82
2022-11-07T09:53:41.345Z,16.05
2022-11-07T09:56:12.447Z,12.75
2022-11-07T09:58:44.717Z,15.13
2022-11-07T10:01:18.080Z,13.25
2022-11-07T10:04:10.219Z,13.48
2022-11-07T10:06:41.041Z,14.65
2022-11-07T10:09:43.041Z,14.43
2022-11-07T10:12:45.958Z,14.15
2022-11-07T10:15:30.349Z,14.45
2022-11-07T10:18:24.724Z,13.98
2022-11-07T10:21:38.764Z,11.35
2022-11-07T10:24:20.382Z,11.63
2022-11-07T10:26:47.060Z,13.80
2022-11-07T10:29:16.643Z,12.50
2022-11-07T10:31:48.838Z,12.68
2022-11-07T10:34:24.378Z,13.23
2022-11-07T10:36:51.398Z,13.60
2022-11-07T10:39:19.315Z,13.10
2022-11-07T10:42:05.381Z,13.07
2022-11-07T10:44:33.889Z,13.07
2022-11-07T10:47:02.292Z,15.30
2022-11-07T10:49:29.855Z,14.70
2022-11-07T10:52:16.852Z,14.23
2022-11-07T10:54:45.066Z,13.27
2022-11-07T10:57:16.347Z,13.43
2022-11-07T10:59:56.622Z,14.80
2022-11-07T11:02:32.091Z,13.98
2022-11-07T11:05:04.845Z,12.32
2022-11-07T11:07:39.972Z,14.75
2022-11-07T11:10:31.699Z,13.98
2022-11-07T11:12:58.225Z,12.02
2022-11-07T11:15:31.228Z,13.85
2022-11-07T11:18:06.718Z,13.65
2022-11-07T11:20:45.455Z,12.73
2022-11-07T11:23:21.172Z,13.85
2022-11-07T11:25:49.620Z,12.65
2022-11-07T11:28:43.451Z,12.35
2022-11-07T11:31:20.112Z,13.43
2022-11-07T11:34:03.681Z,13.40
2022-11-07T11:36:42.670Z,12.18
2022-11-07T11:39:45.543Z,12.55
2022-11-07T11:42:30.213Z,13.30
2022-11-07T11:45:03.792Z,13.35
2022-11-07T11:47:41.442Z,13.40
2022-11-07T11:50:18.447Z,11.15
2022-11-07T11:52:45.998Z,12.55
2022-11-07T11:55:14.535Z,12.35
2022-11-07T11:58:07.465Z,12.52
2022-11-07T12:00:54.215Z,11.82
2022-11-07T12:03:39.179Z,12.88
2022-11-07T12:06:14.222Z,12.45
2022-11-07T12:08:59.575Z,13.05
2022-11-07T12:12:01.176Z,13.10
2022-11-07T12:14:39.894Z,12.23
2022-11-07T12:17:13.263Z,13.93
2022-11-07T12:19:54.989Z,13.43
2022-11-07T12:22:33.351Z,13.40
2022-11-07T12:25:14.687Z,13.52
2022-11-07T12:28:09.207Z,13.32
2022-11-07T12:30:39.356Z,13.43
2022-11-07T12:33:22.117Z,13.45
2022-11-07T12:35:58.859Z,13.50
2022-11-07T12:38:31.599Z,13.73
2022-11-07T12:41:10.328Z,13.00
2022-11-07T12:43:43.179Z,13.45
2022-11-07T12:46:40.215Z,14.82
2022-11-07T12:49:44.962Z,13.27
2022-11-07T12:52:48.552Z,14.55
2022-11-07T12:55:27.437Z,14.15
2022-11-07T12:57:55.208Z,13.32
2022-11-07T13:00:29.239Z,12.18
2022-11-07T13:03:04.638Z,12.77
2022-11-07T13:05:37.974Z,13.20
2022-11-07T13:08:16.474Z,15.05
2022-11-07T13:11:04.206Z,13.55
2022-11-07T13:13:50.400Z,13.27
2022-11-07T13:16:22.603Z,13.68
2022-11-07T13:18:49.248Z,12.73
2022-11-07T13:21:16.052Z,14.05
2022-11-07T13:23:43.588Z,14.45
2022-11-07T13:26:44.572Z,13.57
2022-11-07T13:29:01.503Z,13.15
2022-11-07T13:31:35.751Z,14.35
2022-11-07T13:34:12.323Z,13.00
2022-11-07T13:36:39.521Z,13.40
2022-11-07T13:39:07.638Z,13.82
2022-11-07T13:41:34.795Z,12.57
2022-11-07T13:44:08.058Z,13.00
2022-11-07T13:46:46.653Z,12.57
2022-11-07T13:49:22.646Z,14.02
2022-11-07T13:51:54.234Z,12.60
2022-11-07T13:54:38.400Z,12.90
2022-11-07T13:57:27.206Z,12.98
2022-11-07T14:00:01.978Z,12.48
2022-11-07T14:02:31.486Z,12.70
2022-11-07T14:05:19.265Z,12.45
2022-11-07T14:07:54.435Z,13.98
2022-11-07T14:10:29.652Z,12.90
2022-11-07T14:13:08.388Z,12.20
2022-11-07T14:15:37.794Z,12.60
2022-11-07T14:18:04.903Z,12.95
2022-11-07T14:20:31.680Z,13.32
2022-11-07T14:23:02.881Z,12.77
2022-11-07T14:25:32.767Z,12.85
2022-11-07T14:28:00.760Z,12.82
2022-11-07T14:30:30.348Z,13.25
2022-11-07T14:33:02.295Z,12.50
2022-11-07T14:35:34.480Z,13.65
2022-11-07T14:38:15.712Z,13.35
2022-11-07T14:40:43.073Z,13.50
2022-11-07T14:43:20.215Z,13.07
2022-11-07T14:46:11.179Z,12.23
2022-11-07T14:48:36.086Z,13.55
2022-11-07T14:51:03.693Z,13.95
2022-11-07T14:53:33.799Z,13.77
2022-11-07T14:56:08.011Z,12.85
2022-11-07T14:58:35.417Z,13.77
2022-11-07T15:01:08.335Z,13.63
2022-11-07T15:03:38.101Z,15.43
2022-11-07T15:06:04.904Z,14.65
2022-11-07T15:08:36.798Z,15.00
2022-11-07T15:11:24.692Z,14.52
2022-11-07T15:13:51.389Z,15.65
2022-11-07T15:16:20.608Z,16.45
2022-11-07T15:18:50.521Z,15.13
2022-11-07T15:21:34.730Z,14.68
2022-11-07T15:24:33.247Z,15.95
2022-11-07T15:27:02.747Z,17.27
2022-11-07T15:29:35.953Z,18.02
2022-11-07T15:32:24.141Z,18.67
2022-11-07T15:35:07.978Z,20.40
2022-11-07T15:37:40.270Z,19.25
2022-11-07T15:40:16.674Z,22.83
2022-11-07T15:42:43.266Z,21.65
2022-11-07T15:45:11.147Z,22.73
2022-11-07T15:47:38.682Z,22.42
2022-11-07T15:50:14.174Z,22.58
2022-11-07T15:52:40.758Z,22.70
2022-11-07T15:55:12.341Z,23.02
2022-11-07T15:57:39.490Z,23.77
2022-11-07T16:00:06.842Z,24.17
2022-11-07T16:02:33.620Z,23.05
2022-11-07T16:05:00.298Z,21.80
2022-11-07T16:07:27.012Z,21.83
2022-11-07T16:09:53.715Z,22.08
2022-11-07T16:12:20.246Z,22.35
2022-11-07T16:14:46.867Z,22.85
2022-11-07T16:17:16.985Z,23.25
2022-11-07T16:19:43.813Z,22.05
2022-11-07T16:22:13.196Z,21.40
2022-11-07T16:24:39.796Z,22.60
2022-11-07T16:27:07.087Z,21.65
2022-11-07T16:29:33.689Z,22.25
2022-11-07T16:32:00.344Z,22.17
2022-11-07T16:34:26.969Z,23.27
2022-11-07T16:36:53.746Z,24.40
2022-11-07T16:39:22.800Z,27.25
2022-11-07T16:41:50.420Z,28.98
2022-11-07T16:44:21.673Z,27.75
2022-11-07T16:46:51.628Z,27.25
2022-11-07T16:49:25.197Z,27.58
2022-11-07T16:51:52.038Z,28.10
2022-11-07T16:54:19.013Z,27.98
2022-11-07T16:56:47.307Z,26.42
2022-11-07T16:59:18.933Z,26.33
2022-11-07T17:01:46.055Z,26.63
2022-11-07T17:04:12.883Z,27.08
2022-11-07T17:06:43.551Z,27.10
2022-11-07T17:09:13.640Z,29.35
2022-11-07T17:11:40.413Z,30.58
2022-11-07T17:14:06.994Z,31.05
2022-11-07T17:16:36.853Z,31.23
2022-11-07T17:19:05.693Z,34.95
2022-11-07T17:21:36.351Z,36.38
2022-11-07T17:24:04.144Z,39.60
2022-11-07T17:26:34.684Z,40.30
2022-11-07T17:29:02.842Z,39.97
2022-11-07T17:31:29.422Z,39.10
2022-11-07T17:33:56.034Z,41.40
2022-11-07T17:36:37.477Z,35.22
2022-11-07T17:39:12.412Z,35.72
2022-11-07T17:41:40.779Z,39.88
2022-11-07T17:44:07.756Z,42.08
2022-11-07T17:46:35.641Z,48.63
2022-11-07T17:49:05.014Z,50.42
2022-11-07T17:51:31.603Z,50.63
2022-11-07T17:53:58.733Z,50.65
2022-11-07T17:56:28.421Z,48.50
2022-11-07T17:58:58.034Z,46.92
2022-11-07T18:01:31.066Z,47.35
2022-11-07T18:03:58.954Z,47.20
2022-11-07T18:06:26.600Z,46.63
2022-11-07T18:08:55.930Z,45.05
2022-11-07T18:11:25.636Z,45.17
2022-11-07T18:13:54.370Z,47.80
2022-11-07T18:16:26.374Z,47.55
2022-11-07T18:18:53.196Z,46.50
2022-11-07T18:21:19.782Z,47.72
2022-11-07T18:23:46.379Z,41.60
2022-11-07T18:26:25.359Z,40.70
2022-11-07T18:28:53.745Z,38.88
2022-11-07T18:31:22.398Z,39.22
2022-11-07T18:33:52.633Z,38.65
2022-11-07T18:36:21.417Z,39.90
2022-11-07T18:38:48.586Z,39.58
2022-11-07T18:41:19.621Z,40.13
2022-11-07T18:43:46.322Z,39.17
2022-11-07T18:46:15.061Z,41.28
2022-11-07T18:48:42.125Z,37.05
2022-11-07T18:51:16.509Z,39.03
2022-11-07T18:53:43.664Z,37.78
2022-11-07T18:56:11.980Z,34.88
2022-11-07T18:58:38.967Z,35.05
2022-11-07T19:01:13.928Z,37.75
2022-11-07T19:03:42.882Z,39.35
2022-11-07T19:06:12.314Z,36.70
2022-11-07T19:08:41.385Z,37.08
2022-11-07T19:11:10.647Z,36.30
2022-11-07T19:13:38.784Z,34.95
2022-11-07T19:16:07.845Z,34.78
2022-11-07T19:18:35.363Z,33.95
2022-11-07T19:21:03.850Z,33.80
2022-11-07T19:23:31.034Z,34.83
2022-11-07T19:25:57.670Z,35.35
2022-11-07T19:28:24.253Z,34.25
2022-11-07T19:30:50.864Z,33.55
2022-11-07T19:33:18.180Z,34.45
2022-11-07T19:35:44.977Z,32.78
2022-11-07T19:38:13.811Z,35.17
2022-11-07T19:40:41.489Z,38.42
2022-11-07T19:43:09.521Z,42.95
2022-11-07T19:45:41.246Z,42.03
2022-11-07T19:48:07.942Z,41.10
2022-11-07T19:50:34.543Z,54.35
2022-11-07T19:53:01.168Z,45.83
2022-11-07T19:55:27.887Z,47.50
2022-11-07T19:57:54.487Z,38.85
2022-11-07T20:00:21.227Z,40.38
2022-11-07T20:02:48.418Z,43.05
2022-11-07T20:05:24.168Z,45.33
2022-11-07T20:07:55.264Z,43.45
2022-11-07T20:10:24.275Z,47.20
2022-11-07T20:12:50.940Z,48.22
2022-11-07T20:15:17.581Z,48.45
2022-11-07T20:17:44.275Z,50.92
2022-11-07T20:20:13.725Z,53.35
2022-11-07T20:22:46.409Z,54.28
2022-11-07T20:25:13.526Z,54.97
2022-11-07T20:27:40.303Z,55.75
2022-11-07T20:30:07.790Z,46.95
2022-11-07T20:32:34.380Z,46.47
2022-11-07T20:35:00.982Z,50.60
2022-11-07T20:37:27.557Z,53.60
2022-11-07T20:39:54.132Z,56.40
2022-11-07T20:42:21.245Z,58.80
2022-11-07T20:44:50.078Z,62.03
2022-11-07T20:47:17.225Z,64.60
2022-11-07T20:49:43.885Z,74.13
2022-11-07T20:52:11.005Z,72.10
2022-11-07T20:54:37.769Z,73.43
2022-11-07T20:57:04.496Z,70.40
2022-11-07T20:59:31.984Z,71.93
2022-11-07T21:02:03.115Z,69.68
2022-11-07T21:04:44.605Z,63.95
2022-11-07T21:07:19.970Z,59.40
2022-11-07T21:09:47.040Z,53.97
2022-11-07T21:12:14.144Z,51.55
2022-11-07T21:14:42.248Z,53.25
2022-11-07T21:17:09.862Z,55.38
2022-11-07T21:19:36.895Z,57.13
2022-11-07T21:22:04.341Z,67.72
2022-11-07T21:24:31.864Z,70.68
2022-11-07T21:26:59.104Z,65.50
2022-11-07T21:29:29.584Z,69.82
2022-11-07T21:31:57.394Z,60.05
2022-11-07T21:34:24.798Z,53.15
2022-11-07T21:36:51.478Z,53.95
2022-11-07T21:39:18.119Z,51.40
2022-11-07T21:41:45.298Z,51.15
2022-11-07T21:44:12.571Z,51.70
2022-11-07T21:46:39.747Z,50.90
2022-11-07T21:49:06.569Z,51.55
2022-11-07T21:51:35.092Z,46.83
2022-11-07T21:54:04.168Z,47.15
2022-11-07T21:56:33.188Z,49.00
2022-11-07T21:59:02.729Z,48.70
2022-11-07T22:01:34.989Z,47.92
2022-11-07T22:04:07.380Z,47.30
2022-11-07T22:06:37.616Z,44.50
2022-11-07T22:09:06.006Z,44.78
2022-11-07T22:11:32.802Z,47.53
2022-11-07T22:13:59.432Z,48.13
2022-11-07T22:16:26.201Z,49.25
2022-11-07T22:18:52.902Z,47.60
2022-11-07T22:21:22.178Z,45.20
2022-11-07T22:23:49.555Z,46.25
2022-11-07T22:26:27.207Z,44.92
2022-11-07T22:28:54.481Z,42.85
2022-11-07T22:31:23.956Z,42.80
2022-11-07T22:33:52.234Z,42.55
2022-11-07T22:36:19.962Z,39.42
2022-11-07T22:38:47.127Z,39.95
2022-11-07T22:41:20.058Z,39.95
2022-11-07T22:43:47.282Z,40.20
2022-11-07T22:46:17.308Z,39.70
2022-11-07T22:48:45.479Z,40.00
2022-11-07T22:51:15.585Z,40.42
2022-11-07T22:53:42.217Z,40.35
2022-11-07T22:56:18.872Z,41.60
2022-11-07T22:58:47.109Z,39.72
2022-11-07T23:01:17.433Z,41.35
2022-11-07T23:03:44.271Z,40.80
2022-11-07T23:06:11.123Z,39.95
2022-11-07T23:08:38.297Z,35.80
2022-11-07T23:11:44.211Z,34.50
2022-11-07T23:14:00.893Z,34.50
2022-11-07T23:16:32.805Z,33.85
2022-11-07T23:19:01.599Z,34.78
2022-11-07T23:21:28.837Z,36.10
2022-11-07T23:23:57.699Z,34.63
2022-11-07T23:26:25.740Z,34.83
2022-11-07T23:28:52.645Z,34.03
2022-11-07T23:31:20.119Z,35.10
2022-11-07T23:33:47.259Z,35.63
2022-11-07T23:36:16.245Z,36.20
2022-11-07T23:38:43.982Z,36.15
2022-11-07T23:41:15.421Z,36.13
2022-11-07T23:43:43.221Z,35.08
2022-11-07T23:46:32.432Z,35.10
2022-11-07T23:49:17.679Z,35.90
2022-11-07T23:51:45.266Z,35.13
2022-11-07T23:54:30.780Z,35.97
2022-11-07T23:56:57.511Z,35.03
2022-11-07T23:59:42.734Z,35.13
